Chatham, New Hampshire
Current Conditions -  °F | °C
As of 6:09 AM on Saturday 01 Nov 2014 (Local Time) from KIZG Reporting Station
Overcast Overcast  
Wind Chill: 36°   Ceiling: 2400
Heat Index: 39°   Visibility: 10mi
Dew Point: 31°   Wind: 5mph
Humidity: 73%   Direction: 360°N
Pressure: 29.98"   Gusts: NA
Location:  43.9597°N, 71.0453°W
Report Text: KIZG 011009Z AUTO 36004KT 10SM BKN024 OVC043 04/M01 A2998 RMK AO2 T00391006
Loading
Personal Weather Stations






























Interactive Weather Map
Tropical Storm Tracking
New forecast layout! Learn more

10-Day Weather Forecast

Advertisements
Track Severe Weather on mobile